Time;durP1;ratioP1;P1;durP2;ratioP2;P2;SDS_P1;SDS_P2;PMS_P1;PMS_P2;Temp;Humidity;BMP_temperature;BMP_pressure;BME280_temperature;BME280_humidity;BME280_pressure;Samples;Min_cycle;Max_cycle;Signal;HPM_P1;HPM_P2
2021/12/17 00:00:05;;;;;;;0.30;0.30;;;;;;;;;;1888857;74;25705;-41
2021/12/17 00:05:19;;;;;;;0.70;0.45;;;;;;;;;;1891852;76;26342;-39
2021/12/17 00:07:46;;;;;;;0.37;0.30;;;;;;;;;;1884487;76;26313;-41
2021/12/17 00:10:15;;;;;;;0.33;0.20;;;;;;;;;;1864699;76;26229;-39
2021/12/17 00:12:43;;;;;;;0.13;0.13;;;;;;;;;;1884637;76;26764;-39
2021/12/17 00:15:10;;;;;;;0.30;0.30;;;;;;;;;;1890409;76;26284;-39
2021/12/17 00:17:48;;;;;;;0.30;0.30;;;;;;;;;;1890453;76;26265;-41
2021/12/17 00:53:17;;;;;;;0.10;0.10;;;;;;;;;;1890042;76;27329;-40
2021/12/17 00:55:41;;;;;;;0.35;0.15;;;;;;;;;;1888378;74;26233;-40
2021/12/17 00:58:08;;;;;;;0.20;0.20;;;;;;;;;;1877305;76;26356;-39
2021/12/17 01:00:35;;;;;;;0.23;0.23;;;;;;;;;;1892451;75;26618;-39
2021/12/17 01:03:03;;;;;;;0.10;0.10;;;;;;;;;;1872315;76;26269;-39
2021/12/17 01:05:31;;;;;;;0.30;0.30;;;;;;;;;;1892121;74;26767;-42
2021/12/17 01:07:59;;;;;;;0.10;0.10;;;;;;;;;;1872058;76;26221;-40
2021/12/17 01:10:28;;;;;;;0.20;0.20;;;;;;;;;;1881468;74;26256;-40
2021/12/17 01:12:56;;;;;;;0.20;0.20;;;;;;;;;;1892135;76;26323;-39
2021/12/17 01:15:24;;;;;;;0.20;0.20;;;;;;;;;;1892694;74;26700;-39
2021/12/17 01:17:56;;;;;;;0.05;0.05;;;;;;;;;;1892018;75;26246;-40
2021/12/17 01:23:09;;;;;;;0.15;0.15;;;;;;;;;;1879138;76;26261;-39
2021/12/17 01:36:21;;;;;;;0.00;0.00;;;;;;;;;;1893475;76;26783;-39
2021/12/17 01:44:10;;;;;;;0.10;0.10;;;;;;;;;;1868929;75;26655;-39
2021/12/17 01:46:39;;;;;;;0.93;0.20;;;;;;;;;;1890397;76;26296;-39
2021/12/17 01:59:57;;;;;;;0.30;0.30;;;;;;;;;;1881005;76;26356;-39
2021/12/17 02:02:24;;;;;;;0.10;0.10;;;;;;;;;;1870240;76;27019;-41
2021/12/17 02:04:52;;;;;;;0.13;0.13;;;;;;;;;;1890388;76;26390;-41
2021/12/17 02:07:19;;;;;;;0.25;0.10;;;;;;;;;;1868057;76;26346;-39
2021/12/17 02:28:43;;;;;;;0.20;0.20;;;;;;;;;;1884348;76;26387;-39
2021/12/17 02:28:50;;;;;;;0.23;0.23;;;;;;;;;;1879419;76;26734;-40
2021/12/17 02:31:28;;;;;;;0.10;0.10;;;;;;;;;;1889146;76;26820;-39
2021/12/17 02:33:56;;;;;;;0.57;0.10;;;;;;;;;;1870568;76;26394;-43
2021/12/17 02:36:27;;;;;;;0.10;0.10;;;;;;;;;;1877159;76;26333;-38
2021/12/17 02:39:02;;;;;;;0.85;0.10;;;;;;;;;;1877396;75;26261;-39
2021/12/17 02:46:55;;;;;;;0.10;0.10;;;;;;;;;;1896293;75;26763;-42
2021/12/17 02:49:23;;;;;;;0.33;0.10;;;;;;;;;;1895321;75;26241;-39
2021/12/17 02:51:50;;;;;;;0.23;0.08;;;;;;;;;;1896316;75;26225;-40
2021/12/17 02:54:18;;;;;;;0.05;0.05;;;;;;;;;;1896469;74;26249;-39
2021/12/17 02:56:45;;;;;;;0.30;0.20;;;;;;;;;;1896496;75;26209;-39
2021/12/17 02:59:13;;;;;;;0.15;0.15;;;;;;;;;;1881761;75;27396;-41
2021/12/17 03:01:44;;;;;;;0.10;0.10;;;;;;;;;;1877079;75;26678;-39
2021/12/17 03:04:13;;;;;;;0.98;0.10;;;;;;;;;;1896338;75;26368;-41
2021/12/17 03:06:43;;;;;;;0.20;0.20;;;;;;;;;;1896241;75;26399;-40
2021/12/17 03:09:11;;;;;;;0.20;0.05;;;;;;;;;;1896417;75;26324;-39
2021/12/17 03:11:38;;;;;;;0.10;0.10;;;;;;;;;;1878078;75;26838;-39
2021/12/17 03:14:07;;;;;;;0.00;0.00;;;;;;;;;;1864133;77;26299;-38
2021/12/17 03:16:51;;;;;;;0.10;0.10;;;;;;;;;;1864527;76;26283;-40
2021/12/17 03:23:25;;;;;;;0.30;0.30;;;;;;;;;;1861444;77;26374;-39
2021/12/17 03:24:22;;;;;;;0.10;0.10;;;;;;;;;;1894578;75;26865;-39
2021/12/17 03:26:50;;;;;;;0.03;0.03;;;;;;;;;;1864506;77;26330;-39
2021/12/17 03:29:18;;;;;;;0.20;0.20;;;;;;;;;;1848139;77;26753;-39
2021/12/17 03:31:45;;;;;;;0.10;0.10;;;;;;;;;;1807595;77;26284;-41
2021/12/17 03:34:22;;;;;;;0.10;0.10;;;;;;;;;;1823666;78;26268;-39
2021/12/17 03:36:54;;;;;;;0.10;0.10;;;;;;;;;;1829091;77;26276;-40
2021/12/17 03:39:20;;;;;;;0.50;0.20;;;;;;;;;;1825130;77;26352;-39
2021/12/17 03:41:51;;;;;;;0.10;0.10;;;;;;;;;;1822574;78;26263;-40
2021/12/17 03:44:19;;;;;;;0.20;0.10;;;;;;;;;;1821993;79;26327;-39
2021/12/17 03:46:47;;;;;;;0.45;0.20;;;;;;;;;;1830662;77;26238;-40
2021/12/17 03:49:15;;;;;;;0.20;0.20;;;;;;;;;;1828921;78;26834;-39
2021/12/17 03:54:28;;;;;;;0.00;0.00;;;;;;;;;;1847768;77;26308;-40
2021/12/17 03:56:55;;;;;;;0.20;0.20;;;;;;;;;;1825907;78;26303;-39
2021/12/17 03:59:23;;;;;;;0.20;0.10;;;;;;;;;;1819576;78;26275;-39
2021/12/17 04:01:50;;;;;;;0.20;0.20;;;;;;;;;;1817532;79;26259;-39
2021/12/17 04:04:18;;;;;;;0.90;0.20;;;;;;;;;;1817150;79;26788;-39
2021/12/17 04:06:45;;;;;;;0.10;0.10;;;;;;;;;;1817320;79;26292;-38
2021/12/17 04:09:13;;;;;;;0.10;0.10;;;;;;;;;;1817504;79;26735;-39
2021/12/17 04:11:40;;;;;;;0.00;0.00;;;;;;;;;;1818974;79;26347;-39
2021/12/17 04:14:07;;;;;;;0.03;0.03;;;;;;;;;;1820261;79;26277;-39
2021/12/17 04:16:35;;;;;;;0.10;0.10;;;;;;;;;;1820536;78;26328;-41
2021/12/17 04:19:03;;;;;;;0.10;0.10;;;;;;;;;;1831614;77;26245;-40
2021/12/17 04:21:31;;;;;;;0.10;0.10;;;;;;;;;;1841342;77;26334;-39
2021/12/17 04:23:59;;;;;;;0.10;0.10;;;;;;;;;;1817126;79;26299;-39
2021/12/17 04:26:26;;;;;;;0.10;0.10;;;;;;;;;;1845996;77;26631;-39
2021/12/17 04:28:54;;;;;;;0.10;0.10;;;;;;;;;;1837233;77;26280;-40
2021/12/17 04:31:25;;;;;;;0.20;0.20;;;;;;;;;;1839588;77;26591;-42
2021/12/17 04:33:52;;;;;;;0.20;0.20;;;;;;;;;;1828475;78;26317;-40
2021/12/17 04:36:25;;;;;;;0.20;0.20;;;;;;;;;;1829478;77;26256;-39
2021/12/17 04:38:48;;;;;;;0.13;0.13;;;;;;;;;;1816338;79;26361;-39
2021/12/17 04:44:03;;;;;;;0.10;0.10;;;;;;;;;;1828640;78;26407;-42
2021/12/17 04:46:29;;;;;;;0.20;0.20;;;;;;;;;;1828133;77;26308;-39
2021/12/17 04:59:49;;;;;;;0.45;0.10;;;;;;;;;;1832915;77;26675;-40
2021/12/17 05:02:17;;;;;;;0.10;0.10;;;;;;;;;;1823622;78;26275;-39
2021/12/17 05:04:45;;;;;;;0.10;0.10;;;;;;;;;;1823897;78;26336;-40
2021/12/17 05:07:13;;;;;;;0.10;0.10;;;;;;;;;;1823588;78;26829;-39
2021/12/17 05:10:04;;;;;;;0.17;0.17;;;;;;;;;;1826352;77;26580;-40
2021/12/17 05:20:47;;;;;;;0.13;0.13;;;;;;;;;;1823766;78;26804;-39
2021/12/17 05:23:11;;;;;;;0.00;0.00;;;;;;;;;;1835962;77;26390;-40
2021/12/17 05:25:38;;;;;;;0.10;0.10;;;;;;;;;;1842133;77;26264;-40
2021/12/17 05:28:05;;;;;;;0.90;0.13;;;;;;;;;;1840324;77;26284;-39
2021/12/17 05:30:33;;;;;;;0.00;0.00;;;;;;;;;;1823310;78;26291;-38
2021/12/17 05:33:01;;;;;;;0.10;0.10;;;;;;;;;;1823607;78;26369;-39
2021/12/17 05:35:28;;;;;;;0.20;0.20;;;;;;;;;;1823664;78;26275;-39
2021/12/17 05:37:56;;;;;;;0.10;0.10;;;;;;;;;;1823683;78;26299;-41
2021/12/17 05:40:23;;;;;;;0.23;0.20;;;;;;;;;;1828767;77;26284;-38
2021/12/17 05:42:55;;;;;;;0.20;0.20;;;;;;;;;;1840852;77;27229;-40
2021/12/17 05:47:50;;;;;;;0.45;0.17;;;;;;;;;;1800407;77;26316;-38
2021/12/17 05:50:17;;;;;;;0.20;0.20;;;;;;;;;;1837547;77;26264;-38
2021/12/17 05:52:44;;;;;;;0.42;0.20;;;;;;;;;;1834382;77;26657;-39
2021/12/17 05:55:12;;;;;;;0.33;0.25;;;;;;;;;;1836626;77;26785;-41
2021/12/17 05:57:39;;;;;;;0.68;0.40;;;;;;;;;;1837236;77;26273;-39
2021/12/17 06:00:07;;;;;;;0.45;0.45;;;;;;;;;;1838743;77;26288;-40
2021/12/17 06:02:34;;;;;;;0.72;0.53;;;;;;;;;;1844248;77;26720;-39
2021/12/17 06:05:02;;;;;;;0.42;0.42;;;;;;;;;;1833732;77;26379;-39
2021/12/17 06:07:30;;;;;;;6.05;0.70;;;;;;;;;;1839228;77;26205;-40
2021/12/17 06:10:04;;;;;;;0.50;0.50;;;;;;;;;;1841655;77;26825;-39
2021/12/17 06:12:26;;;;;;;0.50;0.50;;;;;;;;;;1835777;77;26275;-39
2021/12/17 06:14:54;;;;;;;0.60;0.60;;;;;;;;;;1830884;77;26756;-39
2021/12/17 06:17:21;;;;;;;0.60;0.60;;;;;;;;;;1833634;77;26728;-39
2021/12/17 06:19:49;;;;;;;2.37;0.45;;;;;;;;;;1836488;77;26264;-40
2021/12/17 06:22:17;;;;;;;1.37;0.42;;;;;;;;;;1829062;77;26321;-38
2021/12/17 06:24:45;;;;;;;0.78;0.50;;;;;;;;;;1830866;77;26300;-39
2021/12/17 06:27:13;;;;;;;0.75;0.50;;;;;;;;;;1851084;77;26272;-39
2021/12/17 06:29:40;;;;;;;0.85;0.45;;;;;;;;;;1828790;77;26286;-38
2021/12/17 06:32:08;;;;;;;1.75;0.45;;;;;;;;;;1823756;78;26213;-38
2021/12/17 06:34:35;;;;;;;0.40;0.40;;;;;;;;;;1823744;78;26315;-42
2021/12/17 06:37:04;;;;;;;1.90;0.60;;;;;;;;;;1845934;77;26287;-41
2021/12/17 06:39:32;;;;;;;0.80;0.33;;;;;;;;;;1844941;78;26261;-39
2021/12/17 06:41:59;;;;;;;0.50;0.33;;;;;;;;;;1834422;78;26222;-38
2021/12/17 06:44:27;;;;;;;0.30;0.20;;;;;;;;;;1833474;78;26709;-39
2021/12/17 07:05:58;;;;;;;4.42;0.60;;;;;;;;;;1847948;77;26313;-38
2021/12/17 07:11:36;;;;;;;0.93;0.50;;;;;;;;;;1835915;77;26320;-41
2021/12/17 07:21:40;;;;;;;2.90;0.33;;;;;;;;;;1828157;78;26787;-40
2021/12/17 07:24:46;;;;;;;2.62;0.37;;;;;;;;;;1841375;77;26997;-39
2021/12/17 07:32:30;;;;;;;0.62;0.23;;;;;;;;;;1845864;77;26813;-39
2021/12/17 07:35:24;;;;;;;6.12;0.45;;;;;;;;;;1850209;77;26465;-40
2021/12/17 07:39:48;;;;;;;0.30;0.30;;;;;;;;;;1846983;77;26387;-38
2021/12/17 07:42:15;;;;;;;0.20;0.20;;;;;;;;;;1837358;77;26831;-39
2021/12/17 07:44:43;;;;;;;0.75;0.20;;;;;;;;;;1843332;77;26213;-38
2021/12/17 07:47:11;;;;;;;0.30;0.20;;;;;;;;;;1836559;77;26253;-39
2021/12/17 07:49:38;;;;;;;0.40;0.40;;;;;;;;;;1829058;78;26342;-41
2021/12/17 07:52:06;;;;;;;0.42;0.23;;;;;;;;;;1825607;77;26280;-39
2021/12/17 07:54:33;;;;;;;1.65;0.30;;;;;;;;;;1814242;78;26818;-39
2021/12/17 07:57:01;;;;;;;0.20;0.20;;;;;;;;;;1829159;78;26281;-41
2021/12/17 07:59:28;;;;;;;0.85;0.20;;;;;;;;;;1822896;78;26254;-39
2021/12/17 08:01:55;;;;;;;0.30;0.30;;;;;;;;;;1822719;78;26307;-41
2021/12/17 08:04:25;;;;;;;0.20;0.20;;;;;;;;;;1828836;78;26405;-41
2021/12/17 08:06:52;;;;;;;0.20;0.20;;;;;;;;;;1829060;78;26265;-39
2021/12/17 08:09:20;;;;;;;0.35;0.35;;;;;;;;;;1831248;78;26741;-38
2021/12/17 08:11:55;;;;;;;0.40;0.10;;;;;;;;;;1831253;78;26732;-36
2021/12/17 08:14:17;;;;;;;0.30;0.30;;;;;;;;;;1829605;78;26269;-38
2021/12/17 08:17:03;;;;;;;1.87;0.20;;;;;;;;;;1829434;78;27889;-39
2021/12/17 08:24:58;;;;;;;0.20;0.20;;;;;;;;;;1829648;78;26710;-38
2021/12/17 08:27:44;;;;;;;0.95;0.20;;;;;;;;;;1833877;78;26277;-38
2021/12/17 08:30:22;;;;;;;0.20;0.20;;;;;;;;;;1829191;78;26290;-37
2021/12/17 08:32:38;;;;;;;0.10;0.10;;;;;;;;;;1823233;78;26742;-36
2021/12/17 08:35:06;;;;;;;0.20;0.20;;;;;;;;;;1835674;78;26268;-40
2021/12/17 08:37:34;;;;;;;0.20;0.20;;;;;;;;;;1833088;78;26852;-37
2021/12/17 08:40:01;;;;;;;0.20;0.20;;;;;;;;;;1838771;78;26714;-38
2021/12/17 08:42:28;;;;;;;0.40;0.25;;;;;;;;;;1830927;77;26205;-36
2021/12/17 08:44:56;;;;;;;0.20;0.20;;;;;;;;;;1830936;78;26346;-39
2021/12/17 08:47:23;;;;;;;0.13;0.13;;;;;;;;;;1827025;77;26867;-35
2021/12/17 08:49:51;;;;;;;0.25;0.25;;;;;;;;;;1832714;78;26253;-36
2021/12/17 08:52:18;;;;;;;0.53;0.30;;;;;;;;;;1835488;78;26560;-37
2021/12/17 08:54:46;;;;;;;0.78;0.10;;;;;;;;;;1837855;78;26367;-39
2021/12/17 08:57:13;;;;;;;0.30;0.30;;;;;;;;;;1830502;78;26954;-42
2021/12/17 08:59:41;;;;;;;0.93;0.30;;;;;;;;;;1813364;78;26331;-38
2021/12/17 09:02:08;;;;;;;0.90;0.23;;;;;;;;;;1822468;78;26233;-36
2021/12/17 09:04:35;;;;;;;0.20;0.10;;;;;;;;;;1836603;78;26870;-38
2021/12/17 09:07:03;;;;;;;0.20;0.20;;;;;;;;;;1837376;78;26598;-41
2021/12/17 09:09:30;;;;;;;0.20;0.20;;;;;;;;;;1829565;78;26354;-41
2021/12/17 09:11:58;;;;;;;0.17;0.10;;;;;;;;;;1837431;78;26261;-40
2021/12/17 09:14:25;;;;;;;0.20;0.20;;;;;;;;;;1837500;78;26733;-45
2021/12/17 09:16:53;;;;;;;0.37;0.37;;;;;;;;;;1833589;78;26343;-39
2021/12/17 09:19:20;;;;;;;0.88;0.20;;;;;;;;;;1833303;78;26269;-40
2021/12/17 09:21:48;;;;;;;0.20;0.20;;;;;;;;;;1832399;78;26794;-41
2021/12/17 09:24:16;;;;;;;0.28;0.28;;;;;;;;;;1818650;76;26954;-38
2021/12/17 09:26:43;;;;;;;0.23;0.23;;;;;;;;;;1835824;76;26253;-38
2021/12/17 09:29:11;;;;;;;0.17;0.17;;;;;;;;;;1806403;78;26225;-40
2021/12/17 09:31:38;;;;;;;0.30;0.30;;;;;;;;;;1837201;78;26277;-38
2021/12/17 09:34:05;;;;;;;0.13;0.13;;;;;;;;;;1822050;77;26220;-39
2021/12/17 09:36:33;;;;;;;0.20;0.20;;;;;;;;;;1827498;78;26276;-39
2021/12/17 09:39:01;;;;;;;0.30;0.30;;;;;;;;;;1829688;78;26312;-38
2021/12/17 09:41:28;;;;;;;0.23;0.23;;;;;;;;;;1835982;77;27344;-39
2021/12/17 09:43:56;;;;;;;0.30;0.30;;;;;;;;;;1835539;78;26343;-39
2021/12/17 09:46:23;;;;;;;0.20;0.20;;;;;;;;;;1812757;78;26748;-38
2021/12/17 09:48:51;;;;;;;0.50;0.20;;;;;;;;;;1837472;78;26321;-38
2021/12/17 09:51:20;;;;;;;0.28;0.28;;;;;;;;;;1802708;78;39259;-40
2021/12/17 09:53:48;;;;;;;0.23;0.23;;;;;;;;;;1831716;78;26658;-38
2021/12/17 09:56:16;;;;;;;0.20;0.10;;;;;;;;;;1824466;78;26753;-40
2021/12/17 09:58:44;;;;;;;0.50;0.50;;;;;;;;;;1833095;78;26295;-45
2021/12/17 10:01:11;;;;;;;0.20;0.20;;;;;;;;;;1835707;78;26557;-40
2021/12/17 10:03:39;;;;;;;0.23;0.23;;;;;;;;;;1833322;78;26297;-44
2021/12/17 10:06:07;;;;;;;0.25;0.25;;;;;;;;;;1833337;78;26387;-44
2021/12/17 10:08:36;;;;;;;0.17;0.17;;;;;;;;;;1831421;78;26261;-39
2021/12/17 10:11:06;;;;;;;0.20;0.20;;;;;;;;;;1826477;78;26269;-42
2021/12/17 10:13:35;;;;;;;0.28;0.28;;;;;;;;;;1829359;78;26336;-39
2021/12/17 10:16:06;;;;;;;1.27;0.23;;;;;;;;;;1827857;78;26335;-40
2021/12/17 10:18:39;;;;;;;2.33;0.15;;;;;;;;;;1832290;78;26419;-38
2021/12/17 10:21:11;;;;;;;1.47;0.23;;;;;;;;;;1830495;78;26350;-39
2021/12/17 10:23:40;;;;;;;0.30;0.30;;;;;;;;;;1837185;78;26209;-39
2021/12/17 10:26:08;;;;;;;0.17;0.17;;;;;;;;;;1829905;78;26269;-39
2021/12/17 10:28:36;;;;;;;0.30;0.30;;;;;;;;;;1831054;77;26336;-41
2021/12/17 10:31:03;;;;;;;0.20;0.20;;;;;;;;;;1823218;78;26508;-38
2021/12/17 10:33:30;;;;;;;0.40;0.40;;;;;;;;;;1831868;77;26315;-41
2021/12/17 10:36:03;;;;;;;1.30;0.30;;;;;;;;;;1835428;78;26749;-39
2021/12/17 10:38:28;;;;;;;1.40;0.30;;;;;;;;;;1835363;77;26253;-38
2021/12/17 10:41:05;;;;;;;1.02;0.30;;;;;;;;;;1835997;77;26774;-38
2021/12/17 10:43:38;;;;;;;0.25;0.25;;;;;;;;;;1820399;78;26821;-39
2021/12/17 10:46:22;;;;;;;1.35;0.40;;;;;;;;;;1822816;78;26406;-39
2021/12/17 10:51:29;;;;;;;0.33;0.33;;;;;;;;;;1841051;77;26233;-40
2021/12/17 10:53:53;;;;;;;5.05;0.42;;;;;;;;;;1825214;77;26363;-38
2021/12/17 10:56:22;;;;;;;0.40;0.40;;;;;;;;;;1845722;77;26398;-38
2021/12/17 10:58:54;;;;;;;0.30;0.30;;;;;;;;;;1827572;77;26402;-39
2021/12/17 11:01:22;;;;;;;2.20;0.42;;;;;;;;;;1814872;77;26358;-40
2021/12/17 11:03:50;;;;;;;0.37;0.37;;;;;;;;;;1844681;77;26245;-40
2021/12/17 11:06:17;;;;;;;0.28;0.28;;;;;;;;;;1846997;77;26341;-39
2021/12/17 11:08:46;;;;;;;0.40;0.40;;;;;;;;;;1840601;77;26709;-39
2021/12/17 11:11:13;;;;;;;0.47;0.30;;;;;;;;;;1833565;77;26272;-39
2021/12/17 11:13:51;;;;;;;0.15;0.15;;;;;;;;;;1842888;77;26320;-39
2021/12/17 11:16:20;;;;;;;1.27;0.50;;;;;;;;;;1850372;77;26713;-39
2021/12/17 11:18:49;;;;;;;0.13;0.13;;;;;;;;;;1846534;77;26225;-39
2021/12/17 11:21:17;;;;;;;0.82;0.40;;;;;;;;;;1843410;77;26721;-39
2021/12/17 11:23:45;;;;;;;0.70;0.40;;;;;;;;;;1845547;77;26954;-40
2021/12/17 11:26:13;;;;;;;1.07;0.20;;;;;;;;;;1849226;77;26340;-39
2021/12/17 11:28:44;;;;;;;0.28;0.28;;;;;;;;;;1845433;77;26781;-39
2021/12/17 11:31:10;;;;;;;0.47;0.42;;;;;;;;;;1844064;77;26225;-39
2021/12/17 11:33:38;;;;;;;0.47;0.45;;;;;;;;;;1846789;77;26241;-39
2021/12/17 11:36:06;;;;;;;0.30;0.30;;;;;;;;;;1844014;77;26256;-38
2021/12/17 11:38:44;;;;;;;0.30;0.20;;;;;;;;;;1841988;77;26744;-38
2021/12/17 11:41:15;;;;;;;0.45;0.40;;;;;;;;;;1834819;77;26299;-38
2021/12/17 11:43:58;;;;;;;0.10;0.10;;;;;;;;;;1831729;77;26265;-37
2021/12/17 11:46:31;;;;;;;4.75;0.40;;;;;;;;;;1850619;77;26272;-38
2021/12/17 11:49:00;;;;;;;0.40;0.40;;;;;;;;;;1850991;77;26321;-37
2021/12/17 11:51:29;;;;;;;0.53;0.30;;;;;;;;;;1830806;78;26249;-39
2021/12/17 11:54:01;;;;;;;0.23;0.23;;;;;;;;;;1836569;77;26252;-46
2021/12/17 11:56:34;;;;;;;3.42;0.30;;;;;;;;;;1837353;78;26281;-37
2021/12/17 11:59:02;;;;;;;0.30;0.30;;;;;;;;;;1820206;78;26341;-39
2021/12/17 12:01:48;;;;;;;0.57;0.37;;;;;;;;;;1810433;78;26271;-41
2021/12/17 12:04:26;;;;;;;0.20;0.20;;;;;;;;;;1819380;77;26395;-43
2021/12/17 12:07:04;;;;;;;0.30;0.30;;;;;;;;;;1828403;77;26362;-42
2021/12/17 12:09:57;;;;;;;0.10;0.10;;;;;;;;;;1837172;77;26854;-43
2021/12/17 12:12:29;;;;;;;2.22;0.47;;;;;;;;;;1821457;78;26744;-43
2021/12/17 12:14:58;;;;;;;0.47;0.42;;;;;;;;;;1839082;78;26253;-39
2021/12/17 12:17:44;;;;;;;0.30;0.30;;;;;;;;;;1822632;78;26269;-38
2021/12/17 12:20:11;;;;;;;0.60;0.30;;;;;;;;;;1823289;77;26795;-41
2021/12/17 12:22:43;;;;;;;0.37;0.25;;;;;;;;;;1832393;77;26240;-43
2021/12/17 12:25:25;;;;;;;0.37;0.37;;;;;;;;;;1823994;78;26314;-39
2021/12/17 12:27:53;;;;;;;0.30;0.30;;;;;;;;;;1828497;78;26306;-36
2021/12/17 12:30:27;;;;;;;0.33;0.33;;;;;;;;;;1821712;78;26214;-38
2021/12/17 12:33:07;;;;;;;0.80;0.40;;;;;;;;;;1835252;78;26720;-37
2021/12/17 12:35:35;;;;;;;3.20;0.40;;;;;;;;;;1831003;78;26265;-42
2021/12/17 12:38:16;;;;;;;1.50;0.30;;;;;;;;;;1824773;78;26359;-43
2021/12/17 12:40:46;;;;;;;3.62;0.60;;;;;;;;;;1832301;78;26699;-41
2021/12/17 12:43:27;;;;;;;0.30;0.25;;;;;;;;;;1821248;78;26236;-41
2021/12/17 12:45:55;;;;;;;0.30;0.30;;;;;;;;;;1830145;78;26245;-38
2021/12/17 12:48:42;;;;;;;1.17;0.20;;;;;;;;;;1833750;78;26319;-37
2021/12/17 12:51:21;;;;;;;0.40;0.40;;;;;;;;;;1833735;77;26382;-38
2021/12/17 12:53:53;;;;;;;2.55;0.30;;;;;;;;;;1837065;78;26324;-38
2021/12/17 12:56:20;;;;;;;0.93;0.30;;;;;;;;;;1808458;77;26265;-42
2021/12/17 12:58:49;;;;;;;2.83;0.30;;;;;;;;;;1824227;77;26736;-37
2021/12/17 13:01:18;;;;;;;0.33;0.28;;;;;;;;;;1826329;78;26585;-39
2021/12/17 13:03:45;;;;;;;0.28;0.20;;;;;;;;;;1831211;78;26992;-38
2021/12/17 13:06:17;;;;;;;0.20;0.20;;;;;;;;;;1823885;78;26240;-39
2021/12/17 13:08:46;;;;;;;0.30;0.30;;;;;;;;;;1832642;78;26364;-38
2021/12/17 13:11:17;;;;;;;0.30;0.30;;;;;;;;;;1827146;78;26210;-37
2021/12/17 13:14:03;;;;;;;0.20;0.20;;;;;;;;;;1829152;78;26403;-38
2021/12/17 13:16:36;;;;;;;0.20;0.20;;;;;;;;;;1811786;78;26333;-37
2021/12/17 13:24:16;;;;;;;0.30;0.30;;;;;;;;;;1824632;77;26403;-37
2021/12/17 13:26:54;;;;;;;1.10;0.30;;;;;;;;;;1824973;78;26343;-38
2021/12/17 13:29:24;;;;;;;0.30;0.30;;;;;;;;;;1826851;77;26370;-37
2021/12/17 13:32:01;;;;;;;0.30;0.30;;;;;;;;;;1833879;78;26875;-33
2021/12/17 13:34:39;;;;;;;0.30;0.30;;;;;;;;;;1829495;78;26401;-39
2021/12/17 13:37:19;;;;;;;0.20;0.20;;;;;;;;;;1835874;78;26241;-47
2021/12/17 13:39:44;;;;;;;0.20;0.20;;;;;;;;;;1837025;78;26396;-45
2021/12/17 13:42:17;;;;;;;0.30;0.30;;;;;;;;;;1825962;78;26308;-49
2021/12/17 13:44:46;;;;;;;0.30;0.30;;;;;;;;;;1836833;78;26230;-46
2021/12/17 13:47:15;;;;;;;0.37;0.37;;;;;;;;;;1827830;78;26708;-38
2021/12/17 13:49:43;;;;;;;0.33;0.33;;;;;;;;;;1838161;77;26307;-43
2021/12/17 13:52:11;;;;;;;0.20;0.20;;;;;;;;;;1836845;78;26279;-36
2021/12/17 13:54:38;;;;;;;0.53;0.30;;;;;;;;;;1838999;77;26276;-35
2021/12/17 13:57:06;;;;;;;0.20;0.20;;;;;;;;;;1839209;78;26641;-38
2021/12/17 13:59:35;;;;;;;0.28;0.28;;;;;;;;;;1810320;78;26550;-49
2021/12/17 14:02:07;;;;;;;0.30;0.30;;;;;;;;;;1839973;78;26774;-36
2021/12/17 14:04:36;;;;;;;1.85;0.40;;;;;;;;;;1838818;78;26316;-35
2021/12/17 14:07:10;;;;;;;0.30;0.30;;;;;;;;;;1836973;77;26677;-37
2021/12/17 14:09:38;;;;;;;0.30;0.30;;;;;;;;;;1837495;78;26326;-39
2021/12/17 14:12:09;;;;;;;0.28;0.23;;;;;;;;;;1842014;78;26342;-41
2021/12/17 14:14:36;;;;;;;0.33;0.20;;;;;;;;;;1828446;78;28176;-38
2021/12/17 14:17:05;;;;;;;0.35;0.20;;;;;;;;;;1841430;78;26692;-38
2021/12/17 14:19:40;;;;;;;0.17;0.17;;;;;;;;;;1841049;78;26319;-38
2021/12/17 14:22:24;;;;;;;0.90;0.30;;;;;;;;;;1841158;78;26198;-38
2021/12/17 14:24:50;;;;;;;0.20;0.20;;;;;;;;;;1774948;78;26343;-39
2021/12/17 14:27:17;;;;;;;0.40;0.40;;;;;;;;;;1835183;77;26253;-40
2021/12/17 14:29:44;;;;;;;0.28;0.28;;;;;;;;;;1847467;77;26285;-38
2021/12/17 14:32:15;;;;;;;0.20;0.20;;;;;;;;;;1838073;78;26224;-40
2021/12/17 14:34:43;;;;;;;0.42;0.42;;;;;;;;;;1843768;78;26284;-41
2021/12/17 14:37:11;;;;;;;0.30;0.30;;;;;;;;;;1844692;78;26288;-40
2021/12/17 14:39:43;;;;;;;0.25;0.25;;;;;;;;;;1844650;78;26786;-41
2021/12/17 14:42:10;;;;;;;0.33;0.33;;;;;;;;;;1808828;78;26288;-41
2021/12/17 14:44:48;;;;;;;0.30;0.30;;;;;;;;;;1823830;78;26280;-42
2021/12/17 14:47:21;;;;;;;0.23;0.23;;;;;;;;;;1839869;78;26290;-41
2021/12/17 15:03:25;;;;;;;0.65;0.50;;;;;;;;;;1839868;78;26292;-40
2021/12/17 15:05:50;;;;;;;0.65;0.50;;;;;;;;;;1835937;77;26331;-39
2021/12/17 15:08:18;;;;;;;0.20;0.20;;;;;;;;;;1822380;78;26232;-40
2021/12/17 15:10:46;;;;;;;2.40;0.60;;;;;;;;;;1832445;78;26347;-40
2021/12/17 15:13:13;;;;;;;3.12;0.40;;;;;;;;;;1842075;78;26249;-39
2021/12/17 15:15:41;;;;;;;0.40;0.40;;;;;;;;;;1838141;78;26280;-40
2021/12/17 15:18:14;;;;;;;0.30;0.30;;;;;;;;;;1841566;78;26225;-42
2021/12/17 15:20:39;;;;;;;0.30;0.30;;;;;;;;;;1837452;78;26269;-40
2021/12/17 15:23:06;;;;;;;0.30;0.30;;;;;;;;;;1838381;78;26330;-39
2021/12/17 15:25:36;;;;;;;0.40;0.40;;;;;;;;;;1833999;78;26782;-37
2021/12/17 15:28:03;;;;;;;0.33;0.33;;;;;;;;;;1836219;77;26742;-39
2021/12/17 15:30:32;;;;;;;0.40;0.40;;;;;;;;;;1830761;78;28203;-41
2021/12/17 15:33:00;;;;;;;0.40;0.40;;;;;;;;;;1838645;78;26272;-43
2021/12/17 15:35:28;;;;;;;1.85;0.30;;;;;;;;;;1834097;78;26681;-40
2021/12/17 15:37:57;;;;;;;0.78;0.40;;;;;;;;;;1843508;78;26288;-43
2021/12/17 15:40:24;;;;;;;1.92;0.40;;;;;;;;;;1845304;77;26322;-42
2021/12/17 15:42:52;;;;;;;1.45;0.40;;;;;;;;;;1828911;78;26280;-39
2021/12/17 15:45:21;;;;;;;1.02;0.35;;;;;;;;;;1842679;78;26225;-42
2021/12/17 15:47:48;;;;;;;2.62;0.30;;;;;;;;;;1840818;78;26233;-38
2021/12/17 15:50:16;;;;;;;0.25;0.25;;;;;;;;;;1844859;78;26280;-41
2021/12/17 15:52:46;;;;;;;0.30;0.30;;;;;;;;;;1833146;77;26347;-38
2021/12/17 15:55:15;;;;;;;0.35;0.35;;;;;;;;;;1830058;78;26352;-39
2021/12/17 15:57:43;;;;;;;0.85;0.40;;;;;;;;;;1819491;77;26279;-44
2021/12/17 16:00:12;;;;;;;0.30;0.30;;;;;;;;;;1831621;78;26281;-43
2021/12/17 16:02:42;;;;;;;2.60;0.30;;;;;;;;;;1828218;78;26362;-40
2021/12/17 16:05:10;;;;;;;1.85;0.40;;;;;;;;;;1838136;78;26728;-36
2021/12/17 16:07:37;;;;;;;0.30;0.30;;;;;;;;;;1828466;78;26769;-34
2021/12/17 16:23:13;;;;;;;0.40;0.40;;;;;;;;;;1823007;77;26401;-39
2021/12/17 16:25:41;;;;;;;0.30;0.30;;;;;;;;;;1819258;78;26268;-40
2021/12/17 16:28:08;;;;;;;0.45;0.45;;;;;;;;;;1826584;77;26362;-40
2021/12/17 16:30:35;;;;;;;0.70;0.40;;;;;;;;;;1829747;78;26277;-40
2021/12/17 16:33:03;;;;;;;0.50;0.50;;;;;;;;;;1830021;78;26367;-44
2021/12/17 16:35:30;;;;;;;0.40;0.40;;;;;;;;;;1823899;78;26465;-39
2021/12/17 16:37:57;;;;;;;1.17;0.50;;;;;;;;;;1833613;78;26276;-39
2021/12/17 16:40:25;;;;;;;0.50;0.50;;;;;;;;;;1822479;78;26264;-36
2021/12/17 16:42:54;;;;;;;0.30;0.30;;;;;;;;;;1823260;78;27324;-35
2021/12/17 16:45:29;;;;;;;1.05;0.45;;;;;;;;;;1824760;78;26748;-34
2021/12/17 16:47:51;;;;;;;0.57;0.57;;;;;;;;;;1825699;78;26305;-34
2021/12/17 16:50:18;;;;;;;1.37;0.42;;;;;;;;;;1838258;77;27326;-37
2021/12/17 16:52:46;;;;;;;0.45;0.45;;;;;;;;;;1817128;77;26264;-37
2021/12/17 16:55:15;;;;;;;0.40;0.40;;;;;;;;;;1829421;78;26257;-42
2021/12/17 16:57:42;;;;;;;0.30;0.30;;;;;;;;;;1824707;78;26347;-38
2021/12/17 17:00:10;;;;;;;0.35;0.35;;;;;;;;;;1828388;78;26201;-38
2021/12/17 17:02:37;;;;;;;0.40;0.40;;;;;;;;;;1830612;78;26676;-39
2021/12/17 17:05:06;;;;;;;0.40;0.40;;;;;;;;;;1827734;78;26345;-41
2021/12/17 17:07:33;;;;;;;0.40;0.40;;;;;;;;;;1831758;78;26652;-39
2021/12/17 17:10:01;;;;;;;0.50;0.50;;;;;;;;;;1830534;78;26256;-39
2021/12/17 17:12:30;;;;;;;0.37;0.37;;;;;;;;;;1826244;78;26789;-39
2021/12/17 17:14:57;;;;;;;0.50;0.50;;;;;;;;;;1832481;78;26689;-39
2021/12/17 17:17:24;;;;;;;0.33;0.30;;;;;;;;;;1829059;78;26250;-38
2021/12/17 17:19:51;;;;;;;0.50;0.50;;;;;;;;;;1825759;78;26791;-40
2021/12/17 17:22:19;;;;;;;0.40;0.40;;;;;;;;;;1829031;78;26386;-39
2021/12/17 17:24:46;;;;;;;0.40;0.40;;;;;;;;;;1828725;78;26285;-37
2021/12/17 17:27:14;;;;;;;0.50;0.50;;;;;;;;;;1826095;78;26277;-37
2021/12/17 17:29:44;;;;;;;0.40;0.40;;;;;;;;;;1832633;78;26257;-45
2021/12/17 17:32:11;;;;;;;0.95;0.45;;;;;;;;;;1828964;78;26300;-47
2021/12/17 17:34:38;;;;;;;0.30;0.30;;;;;;;;;;1836611;78;26331;-47
2021/12/17 17:37:05;;;;;;;0.50;0.50;;;;;;;;;;1830847;78;26284;-45
2021/12/17 17:39:33;;;;;;;0.57;0.47;;;;;;;;;;1833766;78;26642;-43
2021/12/17 17:42:00;;;;;;;0.37;0.37;;;;;;;;;;1818427;78;26360;-45
2021/12/17 17:44:27;;;;;;;0.50;0.50;;;;;;;;;;1820480;78;26768;-45
2021/12/17 17:46:55;;;;;;;0.42;0.42;;;;;;;;;;1838431;78;26331;-47
2021/12/17 17:49:22;;;;;;;0.53;0.53;;;;;;;;;;1838664;78;26864;-43
2021/12/17 17:51:50;;;;;;;0.60;0.60;;;;;;;;;;1837356;77;26800;-43
2021/12/17 17:54:18;;;;;;;0.42;0.42;;;;;;;;;;1838848;78;26787;-50
2021/12/17 17:56:45;;;;;;;0.60;0.60;;;;;;;;;;1830556;78;26280;-49
2021/12/17 17:59:13;;;;;;;0.50;0.50;;;;;;;;;;1830092;78;26335;-48
2021/12/17 18:01:40;;;;;;;0.50;0.50;;;;;;;;;;1831009;78;26358;-47
2021/12/17 18:04:08;;;;;;;0.57;0.57;;;;;;;;;;1822451;78;26329;-43
2021/12/17 18:06:36;;;;;;;0.60;0.60;;;;;;;;;;1822458;78;26756;-43
2021/12/17 18:09:03;;;;;;;0.70;0.70;;;;;;;;;;1824178;78;26367;-45